createdAt,value
2018-05-07T00:01:18.505Z,4.13
2018-05-07T00:03:44.892Z,4.80
2018-05-07T00:06:11.305Z,3.90
2018-05-07T00:08:37.718Z,4.37
2018-05-07T00:11:04.154Z,4.00
2018-05-07T00:13:30.628Z,4.23
2018-05-07T00:15:56.961Z,5.13
2018-05-07T00:18:23.370Z,4.87
2018-05-07T00:20:49.770Z,5.57
2018-05-07T00:23:16.235Z,5.67
2018-05-07T00:25:42.669Z,4.70
2018-05-07T00:28:09.094Z,4.73
2018-05-07T00:30:35.442Z,5.20
2018-05-07T00:33:03.315Z,7.00
2018-05-07T00:35:29.719Z,6.27
2018-05-07T00:37:56.099Z,6.20
2018-05-07T00:40:22.488Z,5.40
2018-05-07T00:42:48.894Z,5.23
2018-05-07T00:45:15.283Z,4.97
2018-05-07T00:47:41.703Z,5.17
2018-05-07T00:50:08.099Z,6.50
2018-05-07T00:52:34.541Z,6.37
2018-05-07T00:55:13.083Z,5.80
2018-05-07T00:57:39.484Z,5.10
2018-05-07T01:00:05.967Z,5.10
2018-05-07T01:02:32.363Z,5.43
2018-05-07T01:04:58.754Z,5.27
2018-05-07T01:07:25.908Z,5.13
2018-05-07T01:09:53.043Z,5.27
2018-05-07T01:12:19.438Z,5.40
2018-05-07T01:14:45.834Z,4.57
2018-05-07T01:17:12.239Z,5.00
2018-05-07T01:19:38.636Z,4.60
2018-05-07T01:22:05.044Z,5.17
2018-05-07T01:24:31.491Z,5.03
2018-05-07T01:26:57.882Z,4.30
2018-05-07T01:29:25.013Z,4.23
2018-05-07T01:31:52.882Z,3.80
2018-05-07T01:34:19.278Z,3.50
2018-05-07T01:36:45.677Z,4.27
2018-05-07T01:39:12.853Z,4.70
2018-05-07T01:41:39.254Z,4.17
2018-05-07T01:44:06.481Z,4.77
2018-05-07T01:46:33.718Z,5.63
2018-05-07T01:49:00.105Z,4.93
2018-05-07T01:51:26.526Z,5.00
2018-05-07T01:53:52.933Z,5.67
2018-05-07T01:56:19.328Z,5.77
2018-05-07T01:58:45.730Z,10.40
2018-05-07T02:01:12.183Z,7.63
2018-05-07T02:03:38.599Z,5.93
2018-05-07T02:06:04.997Z,5.17
2018-05-07T02:08:32.135Z,5.60
2018-05-07T02:11:00.021Z,5.30
2018-05-07T02:13:27.158Z,5.80
2018-05-07T02:15:53.542Z,6.20
2018-05-07T02:18:19.996Z,5.40
2018-05-07T02:20:46.372Z,4.93
2018-05-07T02:23:13.510Z,4.77
2018-05-07T02:25:40.651Z,5.80
2018-05-07T02:28:07.034Z,4.90
2018-05-07T02:30:33.670Z,5.67
2018-05-07T02:33:00.080Z,5.87
2018-05-07T02:35:27.211Z,5.03
2018-05-07T02:37:54.353Z,4.23
2018-05-07T02:40:22.232Z,3.97
2018-05-07T02:42:48.611Z,4.00
2018-05-07T02:45:14.990Z,4.07
2018-05-07T02:47:42.114Z,4.27
2018-05-07T02:50:08.502Z,4.23
2018-05-07T02:52:34.957Z,4.20
2018-05-07T02:55:01.340Z,5.00
2018-05-07T02:57:28.490Z,4.70
2018-05-07T02:59:54.868Z,5.17
2018-05-07T03:02:21.248Z,4.60
2018-05-07T03:04:49.116Z,4.70
2018-05-07T03:07:15.513Z,4.40
2018-05-07T03:09:41.913Z,5.50
2018-05-07T03:12:08.488Z,5.60
2018-05-07T03:14:36.283Z,4.43
2018-05-07T03:17:02.698Z,7.50
2018-05-07T03:19:29.112Z,7.37
2018-05-07T03:21:56.280Z,7.00
2018-05-07T03:24:24.166Z,6.63
2018-05-07T03:26:50.567Z,6.50
2018-05-07T03:29:16.990Z,5.53
2018-05-07T03:31:43.464Z,4.50
2018-05-07T03:34:10.614Z,5.23
2018-05-07T03:36:37.004Z,5.20
2018-05-07T03:39:03.442Z,5.17
2018-05-07T03:41:29.842Z,4.80
2018-05-07T03:43:56.243Z,4.40
2018-05-07T03:46:23.469Z,4.73
2018-05-07T03:48:49.860Z,4.50
2018-05-07T03:51:16.259Z,5.40
2018-05-07T03:53:43.381Z,4.83
2018-05-07T03:56:09.846Z,5.53
2018-05-07T03:58:36.974Z,5.13
2018-05-07T04:01:04.892Z,4.97
2018-05-07T04:03:31.285Z,5.63
2018-05-07T04:05:57.659Z,4.80
2018-05-07T04:08:24.059Z,3.83
2018-05-07T04:10:51.181Z,4.10
2018-05-07T04:13:17.590Z,5.37
2018-05-07T04:15:44.117Z,5.23
2018-05-07T04:18:22.747Z,7.20
2018-05-07T04:21:01.460Z,7.10
2018-05-07T04:23:40.058Z,6.37
2018-05-07T04:26:06.466Z,11.30
2018-05-07T04:28:33.611Z,9.17
2018-05-07T04:31:00.004Z,6.80
2018-05-07T04:33:26.404Z,7.70
2018-05-07T04:35:52.820Z,6.50
2018-05-07T04:38:19.944Z,6.07
2018-05-07T04:40:47.827Z,6.10
2018-05-07T04:43:14.316Z,6.30
2018-05-07T04:45:40.643Z,6.07
2018-05-07T04:48:07.050Z,5.90
2018-05-07T04:50:33.450Z,6.00
2018-05-07T04:52:59.856Z,9.40
2018-05-07T04:55:27.943Z,8.10
2018-05-07T04:57:54.318Z,6.73
2018-05-07T05:00:20.721Z,6.50
2018-05-07T05:02:47.107Z,6.40
2018-05-07T05:05:13.514Z,5.70
2018-05-07T05:07:39.923Z,6.20
2018-05-07T05:10:06.316Z,5.10
2018-05-07T05:12:32.714Z,6.10
2018-05-07T05:14:59.144Z,5.43
2018-05-07T05:17:25.536Z,5.77
2018-05-07T05:19:53.484Z,6.67
2018-05-07T05:22:19.930Z,6.00
2018-05-07T05:24:46.349Z,6.43
2018-05-07T05:27:12.736Z,7.70
2018-05-07T05:29:39.883Z,7.10
2018-05-07T05:32:07.020Z,7.50
2018-05-07T05:34:33.440Z,8.27
2018-05-07T05:36:59.946Z,7.20
2018-05-07T05:39:26.361Z,6.07
2018-05-07T05:41:52.773Z,5.80
2018-05-07T05:44:19.917Z,5.20
2018-05-07T05:46:47.077Z,5.13
2018-05-07T05:49:13.509Z,5.57
2018-05-07T05:51:39.908Z,5.27
2018-05-07T05:54:06.338Z,5.40
2018-05-07T05:56:32.812Z,4.77
2018-05-07T05:58:59.278Z,5.40
2018-05-07T06:01:25.685Z,5.37
2018-05-07T06:03:52.114Z,4.30
2018-05-07T06:06:18.544Z,4.30
2018-05-07T06:08:44.974Z,4.53
2018-05-07T06:11:11.392Z,4.17
2018-05-07T06:13:38.536Z,4.73
2018-05-07T06:16:05.738Z,4.40
2018-05-07T06:18:32.118Z,4.93
2018-05-07T06:20:59.299Z,4.37
2018-05-07T06:23:25.690Z,4.20
2018-05-07T06:25:52.841Z,4.20
2018-05-07T06:28:19.983Z,3.97
2018-05-07T06:30:46.379Z,4.33
2018-05-07T06:33:12.803Z,3.40
2018-05-07T06:35:39.260Z,3.80
2018-05-07T06:38:05.660Z,4.03
2018-05-07T06:40:32.087Z,4.10
2018-05-07T06:42:58.499Z,3.87
2018-05-07T06:45:25.641Z,3.67
2018-05-07T06:48:11.305Z,3.57
2018-05-07T06:50:37.716Z,3.00
2018-05-07T06:53:04.122Z,3.00
2018-05-07T07:08:19.164Z,3.17
2018-05-07T07:10:45.491Z,3.13
2018-05-07T07:13:12.684Z,2.80
2018-05-07T07:15:39.099Z,2.77
2018-05-07T07:18:05.494Z,2.50
2018-05-07T07:20:32.649Z,2.53
2018-05-07T07:22:59.835Z,2.73
2018-05-07T07:25:26.227Z,2.73
2018-05-07T07:27:53.388Z,2.57
2018-05-07T07:30:19.807Z,2.27
2018-05-07T07:32:46.935Z,2.57
2018-05-07T07:35:13.365Z,2.30
2018-05-07T07:37:39.751Z,3.30
2018-05-07T07:40:06.197Z,2.40
2018-05-07T07:42:32.605Z,2.77
2018-05-07T07:44:59.762Z,2.67
2018-05-07T07:47:26.151Z,2.60
2018-05-07T07:49:52.543Z,2.00
2018-05-07T07:52:18.981Z,2.83
2018-05-07T07:54:45.552Z,2.03
2018-05-07T07:57:11.982Z,2.50
2018-05-07T07:59:38.389Z,2.30
2018-05-07T08:02:04.807Z,3.10
2018-05-07T08:04:31.194Z,2.80
2018-05-07T08:06:57.616Z,2.90
2018-05-07T08:09:24.020Z,3.10
2018-05-07T08:11:50.466Z,2.43
2018-05-07T08:14:16.868Z,2.67
2018-05-07T08:16:43.313Z,2.87
2018-05-07T08:22:11.121Z,4.27
2018-05-07T08:24:37.644Z,2.50
2018-05-07T08:27:04.740Z,2.67
2018-05-07T08:29:31.893Z,2.40
2018-05-07T08:31:59.052Z,3.17
2018-05-07T08:34:26.204Z,2.50
2018-05-07T08:36:53.376Z,2.40
2018-05-07T08:39:19.775Z,2.87
2018-05-07T08:41:46.921Z,3.30
2018-05-07T08:44:13.326Z,3.10
2018-05-07T08:46:39.739Z,2.40
2018-05-07T08:49:06.164Z,2.63
2018-05-07T08:51:32.562Z,2.87
2018-05-07T08:53:59.703Z,3.00
2018-05-07T08:56:26.099Z,2.87
2018-05-07T08:58:52.495Z,2.23
2018-05-07T09:01:18.888Z,2.33
2018-05-07T09:03:45.281Z,3.10
2018-05-07T09:06:11.680Z,2.43
2018-05-07T09:08:38.831Z,2.00
2018-05-07T09:11:05.964Z,2.67
2018-05-07T09:13:32.378Z,1.97
2018-05-07T09:15:58.785Z,1.67
2018-05-07T09:18:25.162Z,2.10
2018-05-07T09:20:51.548Z,2.57
2018-05-07T09:23:17.930Z,2.97
2018-05-07T09:25:45.067Z,2.43
2018-05-07T09:28:12.204Z,2.03
2018-05-07T09:30:38.620Z,2.10
2018-05-07T09:33:05.106Z,2.80
2018-05-07T09:35:31.510Z,2.00
2018-05-07T09:37:57.919Z,2.00
2018-05-07T09:40:24.303Z,3.17
2018-05-07T09:42:51.445Z,1.70
2018-05-07T09:45:18.590Z,1.90
2018-05-07T09:47:44.987Z,2.10
2018-05-07T09:50:11.392Z,2.13
2018-05-07T09:52:37.794Z,1.90
2018-05-07T09:55:04.964Z,1.87
2018-05-07T09:57:31.380Z,1.90
2018-05-07T09:59:58.527Z,1.90
2018-05-07T10:02:24.937Z,2.20
2018-05-07T10:04:51.321Z,1.90
2018-05-07T10:07:17.723Z,1.90
2018-05-07T10:09:44.881Z,2.83
2018-05-07T10:12:12.021Z,1.70
2018-05-07T10:14:39.162Z,1.70
2018-05-07T10:17:05.621Z,2.30
2018-05-07T10:19:31.994Z,1.80
2018-05-07T10:21:58.401Z,2.40
2018-05-07T10:24:24.798Z,2.47
2018-05-07T10:26:51.207Z,2.07
2018-05-07T10:29:17.605Z,1.93
2018-05-07T10:31:44.026Z,2.60
2018-05-07T10:34:10.425Z,1.90
2018-05-07T10:36:38.312Z,1.90
2018-05-07T10:39:05.481Z,1.83
2018-05-07T10:41:32.607Z,1.63
2018-05-07T10:43:59.738Z,1.57
2018-05-07T10:46:26.149Z,1.53
2018-05-07T10:48:52.554Z,1.80
2018-05-07T10:51:18.967Z,2.20
2018-05-07T10:53:45.364Z,2.03
2018-05-07T10:56:11.789Z,1.70
2018-05-07T10:58:38.217Z,1.43
2018-05-07T11:01:04.608Z,1.87
2018-05-07T11:03:30.997Z,1.90
2018-05-07T11:05:58.894Z,1.80
2018-05-07T11:08:26.052Z,1.57
2018-05-07T11:10:52.442Z,1.87
2018-05-07T11:13:18.844Z,1.83
2018-05-07T11:15:45.240Z,1.80
2018-05-07T11:18:12.387Z,1.70
2018-05-07T11:20:38.857Z,1.87
2018-05-07T11:23:05.278Z,1.93
2018-05-07T11:25:31.694Z,2.00
2018-05-07T11:27:58.844Z,2.00
2018-05-07T11:30:25.999Z,2.27
2018-05-07T11:32:52.405Z,1.47
2018-05-07T11:35:19.541Z,1.60
2018-05-07T11:37:45.968Z,1.60
2018-05-07T11:40:13.867Z,1.80
2018-05-07T11:42:41.004Z,1.50
2018-05-07T11:45:07.408Z,1.50
2018-05-07T11:47:33.872Z,2.30
2018-05-07T11:50:00.214Z,1.53
2018-05-07T11:52:27.392Z,1.80
2018-05-07T11:54:53.807Z,1.90
2018-05-07T11:57:20.940Z,2.47
2018-05-07T11:59:47.347Z,1.60
2018-05-07T12:02:13.829Z,1.63
2018-05-07T12:04:40.946Z,2.43
2018-05-07T12:07:08.068Z,1.60
2018-05-07T12:09:34.461Z,1.70
2018-05-07T12:12:01.621Z,1.63
2018-05-07T12:14:28.008Z,1.73
2018-05-07T12:16:55.894Z,3.10
2018-05-07T12:19:23.083Z,1.43
2018-05-07T12:21:49.518Z,1.43
2018-05-07T12:24:15.921Z,1.87
2018-05-07T12:26:43.050Z,1.60
2018-05-07T12:29:11.111Z,1.50
2018-05-07T12:31:37.660Z,1.77
2018-05-07T12:34:05.499Z,1.70
2018-05-07T12:36:31.901Z,1.53
2018-05-07T12:38:58.309Z,1.60
2018-05-07T12:41:25.456Z,1.43
2018-05-07T12:43:52.654Z,1.57
2018-05-07T12:46:19.194Z,1.50
2018-05-07T12:48:45.596Z,1.40
2018-05-07T12:51:12.010Z,1.63
2018-05-07T12:53:39.175Z,1.50
2018-05-07T12:56:05.589Z,1.60
2018-05-07T12:58:32.052Z,1.73
2018-05-07T13:00:58.456Z,1.80
2018-05-07T13:03:25.612Z,2.10
2018-05-07T13:05:52.819Z,1.60
2018-05-07T13:08:19.259Z,1.20
2018-05-07T13:10:47.188Z,1.47
2018-05-07T13:13:13.586Z,1.83
2018-05-07T13:15:39.988Z,1.43
2018-05-07T13:18:06.400Z,1.47
2018-05-07T13:20:32.808Z,1.77
2018-05-07T13:22:59.230Z,1.70
2018-05-07T13:25:26.384Z,1.57
2018-05-07T13:27:53.548Z,1.43
2018-05-07T13:30:19.967Z,1.50
2018-05-07T13:32:47.101Z,1.60
2018-05-07T13:35:13.497Z,1.20
2018-05-07T13:37:39.915Z,1.60
2018-05-07T13:40:06.351Z,2.13
2018-05-07T13:42:32.776Z,1.50
2018-05-07T13:44:59.179Z,1.50
2018-05-07T13:47:26.313Z,1.60
2018-05-07T13:49:52.714Z,1.73
2018-05-07T13:52:19.143Z,2.10
2018-05-07T13:54:45.554Z,1.30
2018-05-07T13:57:11.957Z,1.40
2018-05-07T13:59:38.386Z,1.40
2018-05-07T14:02:05.623Z,1.60
2018-05-07T14:04:32.783Z,1.87
2018-05-07T14:06:59.932Z,1.37
2018-05-07T14:09:27.147Z,1.80
2018-05-07T14:11:54.355Z,4.03
2018-05-07T14:14:21.496Z,1.60
2018-05-07T14:16:48.669Z,1.90
2018-05-07T14:19:15.075Z,1.63
2018-05-07T14:21:42.213Z,1.50
2018-05-07T14:24:08.637Z,1.47
2018-05-07T14:26:35.820Z,1.23
2018-05-07T14:29:02.950Z,1.43
2018-05-07T14:31:30.042Z,2.00
2018-05-07T14:33:56.426Z,1.40
2018-05-07T14:36:24.306Z,1.40
2018-05-07T14:38:51.469Z,1.80
2018-05-07T14:41:18.586Z,1.17
2018-05-07T14:43:44.979Z,1.30
2018-05-07T14:46:12.163Z,1.67
2018-05-07T14:48:38.546Z,1.43
2018-05-07T14:51:04.927Z,1.13
2018-05-07T14:53:31.386Z,1.60
2018-05-07T14:55:57.785Z,1.70
2018-05-07T14:58:24.180Z,1.60
2018-05-07T15:00:50.607Z,1.40
2018-05-07T15:03:17.052Z,1.70
2018-05-07T15:05:43.457Z,1.30
2018-05-07T15:08:09.859Z,1.50
2018-05-07T15:10:36.325Z,1.37
2018-05-07T15:13:04.185Z,1.40
2018-05-07T15:15:30.601Z,2.23
2018-05-07T15:17:57.010Z,2.10
2018-05-07T15:20:23.401Z,1.93
2018-05-07T15:22:49.805Z,2.60
2018-05-07T15:25:17.682Z,2.00
2018-05-07T15:27:44.881Z,2.10
2018-05-07T15:30:11.346Z,1.40
2018-05-07T15:32:37.753Z,1.83
2018-05-07T15:35:05.128Z,1.43
2018-05-07T15:37:31.520Z,1.33
2018-05-07T15:39:57.895Z,1.10
2018-05-07T15:42:24.291Z,1.40
2018-05-07T15:44:50.685Z,1.43
2018-05-07T15:47:17.087Z,1.57
2018-05-07T15:49:43.485Z,1.60
2018-05-07T15:52:09.878Z,1.70
2018-05-07T15:54:38.778Z,1.33
2018-05-07T15:57:05.344Z,1.60
2018-05-07T15:59:31.894Z,1.87
2018-05-07T16:01:58.288Z,1.27
2018-05-07T16:04:25.439Z,3.77
2018-05-07T16:06:52.586Z,1.77
2018-05-07T16:09:19.713Z,1.40
2018-05-07T16:11:47.587Z,1.37
2018-05-07T16:14:14.000Z,1.73
2018-05-07T16:16:40.495Z,1.30
2018-05-07T16:19:06.882Z,1.67
2018-05-07T16:21:34.820Z,2.57
2018-05-07T16:24:01.224Z,2.40
2018-05-07T16:26:27.711Z,2.47
2018-05-07T16:28:54.048Z,1.47
2018-05-07T16:31:21.993Z,1.43
2018-05-07T16:33:49.150Z,1.60
2018-05-07T16:36:15.546Z,1.53
2018-05-07T16:38:41.975Z,2.30
2018-05-07T16:41:08.413Z,1.70
2018-05-07T16:43:34.828Z,1.40
2018-05-07T16:46:01.972Z,1.40
2018-05-07T16:48:29.162Z,1.80
2018-05-07T16:50:56.306Z,1.40
2018-05-07T16:53:22.712Z,1.10
2018-05-07T16:55:49.886Z,1.70
2018-05-07T16:58:16.287Z,1.60
2018-05-07T17:00:42.684Z,2.10
2018-05-07T17:03:09.115Z,2.00
2018-05-07T17:05:35.562Z,2.80
2018-05-07T17:08:01.964Z,2.40
2018-05-07T17:10:28.363Z,1.60
2018-05-07T17:12:55.489Z,1.90
2018-05-07T17:15:21.875Z,2.27
2018-05-07T17:17:48.934Z,2.30
2018-05-07T17:20:15.327Z,2.60
2018-05-07T17:22:42.486Z,3.00
2018-05-07T17:25:08.891Z,2.20
2018-05-07T17:27:36.787Z,2.20
2018-05-07T17:30:03.239Z,1.73
2018-05-07T17:32:29.671Z,1.47
2018-05-07T17:34:56.071Z,2.50
2018-05-07T17:37:23.193Z,2.50
2018-05-07T17:39:49.579Z,2.80
2018-05-07T17:42:15.964Z,2.20
2018-05-07T17:45:07.048Z,3.00
2018-05-07T17:47:45.744Z,3.00
2018-05-07T17:50:12.130Z,4.10
2018-05-07T17:52:39.993Z,4.57
2018-05-07T17:55:06.392Z,4.00
2018-05-07T17:57:32.806Z,4.00
2018-05-07T17:59:59.245Z,2.70
2018-05-07T18:02:26.365Z,2.90
2018-05-07T18:04:53.534Z,5.00
2018-05-07T18:07:19.958Z,3.07
2018-05-07T18:09:46.355Z,2.03
2018-05-07T18:12:12.758Z,2.20
2018-05-07T18:14:39.158Z,2.10
2018-05-07T18:17:06.311Z,1.70
2018-05-07T18:19:32.710Z,2.07
2018-05-07T18:21:59.146Z,1.77
2018-05-07T18:24:25.541Z,1.70
2018-05-07T18:26:51.941Z,2.50
2018-05-07T18:29:19.083Z,3.80
2018-05-07T18:31:46.208Z,2.83
2018-05-07T18:34:12.657Z,2.50
2018-05-07T18:36:39.898Z,3.43
2018-05-07T18:39:06.302Z,2.93
2018-05-07T18:41:32.710Z,2.70
2018-05-07T18:43:59.137Z,3.47
2018-05-07T18:46:25.557Z,1.97
2018-05-07T18:48:52.674Z,2.00
2018-05-07T18:51:19.091Z,2.20
2018-05-07T18:53:45.494Z,2.20
2018-05-07T18:56:12.607Z,2.37
2018-05-07T18:58:39.831Z,1.90
2018-05-07T19:01:07.234Z,1.60
2018-05-07T19:03:34.356Z,1.97
2018-05-07T19:06:00.842Z,2.80
2018-05-07T19:08:27.231Z,2.50
2018-05-07T19:10:54.376Z,7.47
2018-05-07T19:13:20.778Z,9.40
2018-05-07T19:15:47.184Z,3.70
2018-05-07T19:18:13.601Z,5.90
2018-05-07T19:20:39.992Z,2.60
2018-05-07T19:23:06.400Z,2.40
2018-05-07T19:25:32.836Z,1.90
2018-05-07T19:28:00.836Z,2.30
2018-05-07T19:30:27.283Z,1.87
2018-05-07T19:32:54.425Z,1.93
2018-05-07T19:35:20.814Z,2.03
2018-05-07T19:37:47.204Z,2.30
2018-05-07T19:40:14.343Z,2.67
2018-05-07T19:42:40.732Z,2.10
2018-05-07T19:45:07.177Z,2.40
2018-05-07T19:47:35.066Z,2.53
2018-05-07T19:50:01.467Z,2.10
2018-05-07T19:52:27.891Z,2.30
2018-05-07T19:54:54.332Z,2.50
2018-05-07T19:57:20.702Z,2.60
2018-05-07T19:59:47.838Z,1.90
2018-05-07T20:02:14.265Z,2.80
2018-05-07T20:04:40.681Z,2.40
2018-05-07T20:07:07.140Z,2.43
2018-05-07T20:09:33.627Z,2.27
2018-05-07T20:12:00.025Z,2.80
2018-05-07T20:14:27.164Z,2.53
2018-05-07T20:16:53.567Z,2.77
2018-05-07T20:19:19.967Z,2.63
2018-05-07T20:21:46.362Z,2.63
2018-05-07T20:24:12.754Z,2.70
2018-05-07T20:26:39.175Z,2.50
2018-05-07T20:29:05.640Z,2.80
2018-05-07T20:31:32.000Z,2.63
2018-05-07T20:33:58.488Z,3.20
2018-05-07T20:36:24.929Z,3.23
2018-05-07T20:38:51.319Z,3.20
2018-05-07T20:41:18.452Z,3.50
2018-05-07T20:43:45.594Z,3.37
2018-05-07T20:46:12.036Z,3.20
2018-05-07T20:48:39.192Z,3.40
2018-05-07T20:51:06.370Z,2.87
2018-05-07T20:53:32.762Z,2.60
2018-05-07T20:55:59.156Z,3.10
2018-05-07T20:58:25.566Z,3.40
2018-05-07T21:00:52.035Z,3.23
2018-05-07T21:03:19.214Z,3.10
2018-05-07T21:05:46.414Z,2.87
2018-05-07T21:08:12.872Z,3.10
2018-05-07T21:10:39.341Z,3.27
2018-05-07T21:13:05.777Z,3.60
2018-05-07T21:15:32.202Z,3.60
2018-05-07T21:17:58.593Z,3.60
2018-05-07T21:20:24.973Z,2.93
2018-05-07T21:22:52.157Z,2.83
2018-05-07T21:25:18.578Z,3.47
2018-05-07T21:27:44.973Z,3.43
2018-05-07T21:30:11.366Z,2.97
2018-05-07T21:32:37.754Z,2.90
2018-05-07T21:35:04.896Z,3.53
2018-05-07T21:37:31.291Z,2.80
2018-05-07T21:39:57.676Z,3.20
2018-05-07T21:42:24.818Z,3.23
2018-05-07T21:44:51.202Z,3.03
2018-05-07T21:47:17.609Z,3.23
2018-05-07T21:49:44.002Z,2.97
2018-05-07T21:52:10.396Z,2.93
2018-05-07T21:54:36.801Z,3.33
2018-05-07T21:57:03.204Z,3.70
2018-05-07T21:59:30.334Z,3.90
2018-05-07T22:01:56.711Z,3.40
2018-05-07T22:04:23.865Z,3.60
2018-05-07T22:06:50.246Z,3.10
2018-05-07T22:09:16.644Z,3.90
2018-05-07T22:11:43.104Z,3.23
2018-05-07T22:14:09.576Z,3.40
2018-05-07T22:16:36.727Z,3.20
2018-05-07T22:19:03.878Z,3.20
2018-05-07T22:21:31.014Z,3.50
2018-05-07T22:23:58.888Z,3.33
2018-05-07T22:26:26.018Z,4.17
2018-05-07T22:28:52.399Z,4.27
2018-05-07T22:31:18.826Z,4.10
2018-05-07T22:33:45.218Z,3.73
2018-05-07T22:36:11.608Z,3.60
2018-05-07T22:38:37.992Z,3.40
2018-05-07T22:41:04.403Z,3.63
2018-05-07T22:43:30.812Z,3.43
2018-05-07T22:45:57.221Z,3.37
2018-05-07T22:48:23.626Z,3.70
2018-05-07T22:50:50.735Z,3.10
2018-05-07T22:53:17.132Z,3.40
2018-05-07T22:55:43.541Z,3.63
2018-05-07T22:58:10.711Z,3.50
2018-05-07T23:00:37.306Z,3.23
2018-05-07T23:03:03.721Z,3.50
2018-05-07T23:05:30.117Z,3.00
2018-05-07T23:07:56.528Z,3.53
2018-05-07T23:10:23.674Z,3.40
2018-05-07T23:12:50.076Z,3.40
2018-05-07T23:15:17.971Z,3.83
2018-05-07T23:17:45.128Z,4.23
2018-05-07T23:20:12.301Z,4.97
2018-05-07T23:22:38.759Z,3.70
2018-05-07T23:25:05.162Z,3.90
2018-05-07T23:27:31.556Z,9.50
2018-05-07T23:29:59.431Z,3.57
2018-05-07T23:32:25.858Z,4.30
2018-05-07T23:34:52.251Z,4.77
2018-05-07T23:37:18.648Z,4.17
2018-05-07T23:39:45.778Z,3.40
2018-05-07T23:42:12.215Z,4.20
2018-05-07T23:44:38.621Z,4.57
2018-05-07T23:47:05.018Z,3.50
2018-05-07T23:49:31.407Z,3.90
2018-05-07T23:51:57.799Z,3.73
2018-05-07T23:54:24.206Z,3.97
2018-05-07T23:56:50.583Z,3.40
2018-05-07T23:59:16.994Z,3.37
